Time;durP1;ratioP1;P1;durP2;ratioP2;P2;SDS_P1;SDS_P2;PMS_P1;PMS_P2;Temp;Humidity;BMP_temperature;BMP_pressure;BME280_temperature;BME280_humidity;BME280_pressure;Samples;Min_cycle;Max_cycle;Signal;HPM_P1;HPM_P2
2023/07/29 00:02:07;;;;;;;0.10;0.10;;;;;;;15.56;100.00;100599.44;5052460;28;20104;-49
2023/07/29 00:04:32;;;;;;;0.10;0.10;;;;;;;15.60;100.00;100593.41;5052281;28;20076;-48
2023/07/29 00:06:58;;;;;;;0.10;0.10;;;;;;;15.61;100.00;100593.41;5053488;28;20029;-46
2023/07/29 00:09:23;;;;;;;0.10;0.10;;;;;;;15.66;100.00;100585.63;5052362;28;20469;-48
2023/07/29 00:11:48;;;;;;;0.10;0.10;;;;;;;15.69;100.00;100585.63;5053098;28;20540;-47
2023/07/29 00:14:13;;;;;;;0.10;0.10;;;;;;;15.53;100.00;100576.03;5053335;28;20037;-48
2023/07/29 00:16:39;;;;;;;0.10;0.10;;;;;;;15.62;100.00;100573.47;5052280;28;20029;-47
2023/07/29 00:19:04;;;;;;;0.10;0.10;;;;;;;15.63;100.00;100577.81;5053094;28;20031;-49
2023/07/29 00:21:30;;;;;;;0.10;0.10;;;;;;;15.72;100.00;100579.59;5052811;28;20108;-49
2023/07/29 00:23:57;;;;;;;0.10;0.10;;;;;;;15.75;100.00;100583.06;5052227;28;20108;-47
2023/07/29 00:26:23;;;;;;;0.10;0.10;;;;;;;15.71;100.00;100583.94;5052698;28;20103;-44
2023/07/29 00:28:48;;;;;;;0.10;0.10;;;;;;;15.69;100.00;100583.03;5052897;28;20104;-47
2023/07/29 00:31:13;;;;;;;0.10;0.10;;;;;;;15.75;100.00;100587.38;5052286;28;20119;-48
2023/07/29 00:33:39;;;;;;;0.10;0.10;;;;;;;15.76;100.00;100584.81;5052803;28;20021;-49
2023/07/29 00:36:04;;;;;;;0.10;0.10;;;;;;;15.80;100.00;100577.88;5052939;28;20072;-50
2023/07/29 00:38:29;;;;;;;0.10;0.10;;;;;;;15.84;100.00;100581.38;5052011;28;20067;-50
2023/07/29 00:40:57;;;;;;;0.10;0.10;;;;;;;15.80;100.00;100581.34;5052878;28;20079;-45
2023/07/29 00:43:22;;;;;;;0.10;0.10;;;;;;;15.76;100.00;100574.41;5052510;28;20081;-46
2023/07/29 00:45:48;;;;;;;0.10;0.10;;;;;;;15.72;100.00;100559.66;5051953;28;20056;-49
2023/07/29 00:48:13;;;;;;;0.10;0.10;;;;;;;15.74;100.00;100560.53;5052852;28;20017;-50
2023/07/29 00:50:39;;;;;;;0.00;0.00;;;;;;;15.77;100.00;100565.75;5052139;28;20025;-46
2023/07/29 00:53:05;;;;;;;0.10;0.10;;;;;;;15.62;100.00;100561.38;5052196;28;20040;-49
2023/07/29 00:55:30;;;;;;;0.10;0.10;;;;;;;15.66;100.00;100557.06;5052113;28;20029;-45
2023/07/29 00:57:55;;;;;;;0.10;0.10;;;;;;;15.58;100.00;100559.63;5052041;28;20040;-48
2023/07/29 01:00:22;;;;;;;0.10;0.10;;;;;;;15.63;100.00;100557.03;5052758;28;20021;-50
2023/07/29 01:02:47;;;;;;;0.10;0.10;;;;;;;15.62;100.00;100550.97;5052496;28;20476;-49
2023/07/29 01:05:15;;;;;;;0.10;0.10;;;;;;;15.68;100.00;100554.47;5051887;28;20492;-50
2023/07/29 01:07:55;;;;;;;;;;;;;;;15.77;100.00;100555.34;5052584;28;20025;-48
2023/07/29 01:10:54;;;;;;;0.10;0.10;;;;;;;15.68;100.00;100560.50;5052414;28;20257;-50
2023/07/29 01:13:28;;;;;;;0.15;0.10;;;;;;;15.61;100.00;100558.78;5051689;28;20494;-49
2023/07/29 01:15:59;;;;;;;0.10;0.10;;;;;;;15.59;100.00;100555.28;5056017;28;20082;-49
2023/07/29 01:18:36;;;;;;;0.03;0.03;;;;;;;15.58;100.00;100563.94;5056203;28;20055;-51
2023/07/29 01:21:08;;;;;;;0.10;0.10;;;;;;;15.52;100.00;100561.31;5055924;28;20028;-49
2023/07/29 01:23:35;;;;;;;0.10;0.10;;;;;;;15.33;100.00;100558.63;5056238;28;20095;-45
2023/07/29 01:26:02;;;;;;;0.10;0.10;;;;;;;15.34;100.00;100557.78;5055838;28;20029;-47
2023/07/29 01:28:27;;;;;;;0.10;0.10;;;;;;;15.27;100.00;100556.88;5056185;28;20082;-50
2023/07/29 01:31:10;;;;;;;0.10;0.10;;;;;;;15.29;100.00;100556.88;5056509;28;20108;-49
2023/07/29 01:33:59;;;;;;;0.10;0.10;;;;;;;15.30;100.00;100556.03;5055301;28;20036;-49
2023/07/29 01:36:28;;;;;;;0.10;0.10;;;;;;;15.38;100.00;100556.91;5055779;28;20505;-49
2023/07/29 01:38:56;;;;;;;0.10;0.10;;;;;;;15.28;100.00;100560.34;5056171;28;20025;-48
2023/07/29 01:41:23;;;;;;;0.10;0.10;;;;;;;15.34;100.00;100559.47;5055284;28;20124;-47
2023/07/29 01:43:49;;;;;;;0.10;0.10;;;;;;;15.49;100.00;100564.75;5055904;28;20044;-48
2023/07/29 01:46:15;;;;;;;0.10;0.10;;;;;;;15.54;100.00;100567.38;5056276;28;20086;-47
2023/07/29 01:48:40;;;;;;;0.00;0.00;;;;;;;15.52;100.00;100569.09;5055164;28;20025;-48
2023/07/29 01:51:06;;;;;;;0.10;0.10;;;;;;;15.50;100.00;100570.84;5056081;28;20377;-48
2023/07/29 01:53:32;;;;;;;0.10;0.10;;;;;;;15.57;100.00;100567.38;5055640;28;20057;-49
2023/07/29 01:55:58;;;;;;;0.10;0.10;;;;;;;15.67;100.00;100583.91;5054844;28;20120;-49
2023/07/29 01:58:24;;;;;;;0.10;0.10;;;;;;;15.71;100.00;100570.06;5055441;28;20044;-51
2023/07/29 02:00:49;;;;;;;0.10;0.10;;;;;;;15.75;100.00;100582.19;5055717;28;20013;-48
2023/07/29 02:03:14;;;;;;;0.10;0.10;;;;;;;15.77;100.00;100572.69;5054987;28;20090;-50
2023/07/29 02:05:40;;;;;;;0.10;0.10;;;;;;;15.81;100.00;100571.84;5055520;28;20021;-51
2023/07/29 02:08:05;;;;;;;0.10;0.10;;;;;;;15.80;100.00;100567.47;5054801;28;20420;-50
2023/07/29 02:10:30;;;;;;;0.10;0.10;;;;;;;15.82;100.00;100560.59;5055163;28;20116;-48
2023/07/29 02:12:56;;;;;;;0.10;0.10;;;;;;;15.85;100.00;100567.53;5055886;28;20032;-50
2023/07/29 02:15:21;;;;;;;0.10;0.10;;;;;;;15.82;100.00;100565.81;5054684;28;20029;-49
2023/07/29 02:17:46;;;;;;;0.10;0.10;;;;;;;15.85;100.00;100559.75;5055339;28;20052;-48
2023/07/29 02:20:12;;;;;;;0.10;0.10;;;;;;;15.86;100.00;100564.09;5055531;28;20100;-48
2023/07/29 02:22:37;;;;;;;0.10;0.10;;;;;;;15.82;100.00;100550.22;5054181;28;20446;-49
2023/07/29 02:25:03;;;;;;;0.10;0.10;;;;;;;15.73;100.00;100548.41;5055145;28;20029;-47
2023/07/29 02:27:28;;;;;;;0.10;0.10;;;;;;;15.70;100.00;100547.53;5053759;28;20028;-46
2023/07/29 02:29:54;;;;;;;0.10;0.10;;;;;;;15.67;100.00;100550.13;5054588;28;20056;-47
2023/07/29 02:32:20;;;;;;;0.10;0.10;;;;;;;15.69;100.00;100549.28;5055308;28;20052;-47
2023/07/29 02:34:45;;;;;;;0.10;0.10;;;;;;;15.63;100.00;100544.94;5054801;28;20078;-48
2023/07/29 02:37:10;;;;;;;0.10;0.10;;;;;;;15.62;100.00;100547.50;5054310;28;20029;-45
2023/07/29 02:39:37;;;;;;;0.10;0.10;;;;;;;15.57;100.00;100551.81;5054676;28;20024;-48
2023/07/29 02:42:02;;;;;;;0.10;0.10;;;;;;;15.57;100.00;100541.41;5054746;28;20067;-48
2023/07/29 02:44:28;;;;;;;0.10;0.10;;;;;;;15.54;100.00;100546.59;5054051;28;20028;-50
2023/07/29 02:46:55;;;;;;;0.10;0.10;;;;;;;15.52;100.00;100548.31;5055069;28;20074;-49
2023/07/29 02:49:21;;;;;;;0.10;0.10;;;;;;;15.51;100.00;100546.59;5054935;28;20029;-48
2023/07/29 02:51:46;;;;;;;0.10;0.10;;;;;;;15.45;100.00;100548.31;5053771;28;20037;-49
2023/07/29 02:54:11;;;;;;;0.10;0.10;;;;;;;15.45;100.00;100543.13;5054640;28;20055;-50
2023/07/29 02:56:37;;;;;;;0.10;0.10;;;;;;;15.41;100.00;100541.34;5054282;28;20025;-49
2023/07/29 02:59:02;;;;;;;0.10;0.10;;;;;;;15.38;100.00;100543.94;5053906;28;20029;-46
2023/07/29 03:01:27;;;;;;;0.10;0.10;;;;;;;15.36;100.00;100545.66;5054342;28;20465;-45
2023/07/29 03:03:53;;;;;;;0.10;0.10;;;;;;;15.31;100.00;100540.44;5054677;28;20048;-47
2023/07/29 03:06:18;;;;;;;0.10;0.10;;;;;;;15.29;100.00;100541.31;5053905;28;20033;-50
2023/07/29 03:08:44;;;;;;;0.10;0.10;;;;;;;15.27;100.00;100538.69;5054325;28;20369;-48
2023/07/29 03:11:13;;;;;;;0.10;0.10;;;;;;;15.29;100.00;100542.16;5054437;28;20115;-50
2023/07/29 03:13:39;;;;;;;0.10;0.10;;;;;;;15.25;100.00;100539.56;5053324;28;20388;-48
2023/07/29 03:16:11;;;;;;;0.10;0.10;;;;;;;15.23;100.00;100542.13;5054320;28;20496;-50
2023/07/29 03:18:37;;;;;;;0.10;0.10;;;;;;;15.27;100.00;100540.41;5053283;28;20035;-48
2023/07/29 03:21:03;;;;;;;0.10;0.10;;;;;;;15.20;100.00;100536.91;5054187;28;20111;-50
2023/07/29 03:23:29;;;;;;;0.10;0.10;;;;;;;15.19;100.00;100539.50;5053994;28;20063;-49
2023/07/29 03:25:57;;;;;;;0.10;0.10;;;;;;;15.19;100.00;100539.50;5053527;28;20107;-46
2023/07/29 03:28:24;;;;;;;0.03;0.03;;;;;;;15.17;100.00;100557.69;5053996;28;20031;-45
2023/07/29 03:30:50;;;;;;;0.10;0.10;;;;;;;15.13;100.00;100551.59;5054291;28;20063;-49
2023/07/29 03:33:15;;;;;;;0.10;0.10;;;;;;;15.14;100.00;100555.94;5053334;28;20108;-48
2023/07/29 03:35:44;;;;;;;0.10;0.10;;;;;;;15.14;100.00;100552.44;5053528;28;20029;-48
2023/07/29 03:38:09;;;;;;;0.10;0.10;;;;;;;15.12;100.00;100544.66;5053560;28;20021;-49
2023/07/29 03:40:35;;;;;;;0.10;0.10;;;;;;;15.13;100.00;100554.19;5053021;28;20027;-49
2023/07/29 03:43:00;;;;;;;0.10;0.10;;;;;;;15.12;100.00;100559.38;5053668;28;20041;-48
2023/07/29 03:45:25;;;;;;;0.10;0.10;;;;;;;15.09;100.00;100562.81;5053495;28;20045;-47
2023/07/29 03:47:51;;;;;;;0.10;0.10;;;;;;;15.09;100.00;100549.84;5052944;28;20330;-47
2023/07/29 03:50:16;;;;;;;0.10;0.10;;;;;;;15.06;100.00;100544.63;5053489;28;20422;-49
2023/07/29 03:52:41;;;;;;;0.10;0.10;;;;;;;15.06;100.00;100549.81;5053206;28;20243;-46
2023/07/29 03:55:07;;;;;;;0.10;0.10;;;;;;;15.03;100.00;100547.22;5052606;28;20140;-51
2023/07/29 03:57:32;;;;;;;0.10;0.10;;;;;;;15.04;100.00;100541.16;5053250;28;20037;-45
2023/07/29 03:59:58;;;;;;;0.10;0.10;;;;;;;15.02;100.00;100535.09;5053830;28;20021;-50
2023/07/29 04:02:23;;;;;;;0.10;0.10;;;;;;;14.95;100.00;100526.41;5052326;28;20071;-51
2023/07/29 04:04:48;;;;;;;0.10;0.10;;;;;;;14.92;100.00;100504.75;5053335;28;20048;-50
2023/07/29 04:07:14;;;;;;;0.10;0.10;;;;;;;14.92;100.00;100500.41;5053179;28;20024;-47
2023/07/29 04:09:39;;;;;;;0.10;0.10;;;;;;;14.90;100.00;100506.44;5052068;28;20029;-46
2023/07/29 04:12:05;;;;;;;0.10;0.10;;;;;;;14.89;100.00;100512.53;5053157;28;20119;-47
2023/07/29 04:14:30;;;;;;;0.10;0.10;;;;;;;14.90;100.00;100503.84;5052991;28;20067;-46
2023/07/29 04:16:56;;;;;;;0.10;0.10;;;;;;;14.90;100.00;100506.44;5052315;28;20070;-45
2023/07/29 04:19:21;;;;;;;0.10;0.10;;;;;;;14.90;100.00;100496.06;5053220;28;20074;-47
2023/07/29 04:21:47;;;;;;;0.10;0.10;;;;;;;14.91;100.00;100515.97;5051983;28;20036;-49
2023/07/29 04:24:12;;;;;;;0.10;0.10;;;;;;;14.93;100.00;100535.03;5053041;28;20179;-47
2023/07/29 04:26:39;;;;;;;0.10;0.10;;;;;;;14.93;100.00;100542.81;5052728;28;20013;-48
2023/07/29 04:29:04;;;;;;;0.10;0.10;;;;;;;14.94;100.00;100560.13;5052281;28;20029;-48
2023/07/29 04:31:30;;;;;;;0.10;0.10;;;;;;;14.95;100.00;100567.91;5052719;28;20043;-46
2023/07/29 04:33:55;;;;;;;0.10;0.10;;;;;;;14.98;100.00;100572.25;5052874;28;20052;-46
2023/07/29 04:36:20;;;;;;;0.13;0.13;;;;;;;15.01;100.00;100571.41;5051892;28;20411;-45
2023/07/29 04:38:46;;;;;;;0.03;0.03;;;;;;;15.05;100.00;100568.84;5052494;28;20059;-47
2023/07/29 04:41:11;;;;;;;0.10;0.10;;;;;;;15.06;100.00;100560.19;5052982;28;20043;-48
2023/07/29 04:43:36;;;;;;;0.10;0.10;;;;;;;15.09;100.00;100560.22;5051632;28;20385;-45
2023/07/29 04:46:02;;;;;;;0.10;0.10;;;;;;;15.12;100.00;100560.25;5052792;28;20025;-49
2023/07/29 04:48:27;;;;;;;0.10;0.10;;;;;;;15.14;100.00;100574.09;5051979;28;20028;-48
2023/07/29 04:50:53;;;;;;;0.10;0.10;;;;;;;15.19;100.00;100578.44;5051487;28;20102;-44
2023/07/29 04:53:18;;;;;;;0.10;0.10;;;;;;;15.20;100.00;100565.47;5052538;28;20083;-44
2023/07/29 04:55:43;;;;;;;0.10;0.10;;;;;;;15.24;100.00;100558.59;5052055;28;20021;-48
2023/07/29 04:58:09;;;;;;;0.10;0.10;;;;;;;15.25;100.00;100558.59;5051883;28;20029;-47
2023/07/29 05:00:35;;;;;;;0.10;0.10;;;;;;;15.29;100.00;100562.06;5052160;28;20044;-49
2023/07/29 05:03:01;;;;;;;0.10;0.10;;;;;;;15.30;100.00;100569.88;5052386;28;20037;-45
2023/07/29 05:05:26;;;;;;;0.10;0.10;;;;;;;15.31;100.00;100570.72;5051302;28;20021;-50
2023/07/29 05:07:51;;;;;;;0.10;0.10;;;;;;;15.33;100.00;100575.94;5052235;28;20033;-49
2023/07/29 05:10:17;;;;;;;0.10;0.10;;;;;;;15.36;100.00;100586.34;5052384;28;20021;-45
2023/07/29 05:12:42;;;;;;;0.10;0.10;;;;;;;15.37;100.00;100586.34;5051464;28;20037;-45
2023/07/29 05:15:08;;;;;;;0.10;0.10;;;;;;;15.41;100.00;100580.28;5052288;28;20082;-46
2023/07/29 05:17:33;;;;;;;0.10;0.10;;;;;;;15.43;100.00;100585.53;5052155;28;20078;-45
2023/07/29 05:19:58;;;;;;;0.10;0.10;;;;;;;15.48;100.00;100597.66;5051378;28;20036;-47
2023/07/29 05:22:24;;;;;;;0.10;0.10;;;;;;;15.52;100.00;100601.16;5051991;28;20258;-46
2023/07/29 05:24:50;;;;;;;0.10;0.10;;;;;;;15.55;100.00;100592.50;5052399;28;20052;-47
2023/07/29 05:27:15;;;;;;;0.10;0.10;;;;;;;15.59;100.00;100591.66;5051459;28;20113;-49
2023/07/29 05:29:41;;;;;;;0.10;0.10;;;;;;;15.63;100.00;100588.19;5051840;28;20028;-49
2023/07/29 05:32:07;;;;;;;0.10;0.10;;;;;;;15.66;100.00;100577.84;5051505;28;20538;-46
2023/07/29 05:34:32;;;;;;;0.10;0.10;;;;;;;15.67;100.00;100584.75;5051820;28;20068;-49
2023/07/29 05:36:57;;;;;;;0.10;0.10;;;;;;;15.68;100.00;100586.50;5052185;28;20025;-49
2023/07/29 05:39:24;;;;;;;0.10;0.10;;;;;;;15.68;100.00;100581.31;5051136;28;20362;-45
2023/07/29 05:41:49;;;;;;;0.10;0.10;;;;;;;15.68;100.00;100581.31;5052101;28;20104;-46
2023/07/29 05:44:14;;;;;;;0.10;0.10;;;;;;;15.72;100.00;100587.38;5052220;28;20107;-45
2023/07/29 05:46:40;;;;;;;0.10;0.10;;;;;;;15.74;100.00;100583.94;5050972;28;20017;-49
2023/07/29 05:49:05;;;;;;;0.10;0.10;;;;;;;15.80;100.00;100583.06;5052066;28;20031;-50
2023/07/29 05:51:30;;;;;;;0.10;0.10;;;;;;;15.87;100.00;100578.78;5051656;28;20039;-45
2023/07/29 05:53:55;;;;;;;0.10;0.10;;;;;;;15.96;100.00;100587.50;5051205;28;20477;-44
2023/07/29 05:56:21;;;;;;;0.10;0.10;;;;;;;16.02;100.00;100584.03;5052035;28;20029;-48
2023/07/29 05:58:46;;;;;;;0.10;0.10;;;;;;;16.16;100.00;100588.44;5051577;28;20025;-47
2023/07/29 06:01:12;;;;;;;0.10;0.10;;;;;;;16.22;100.00;100589.31;5053467;28;20028;-46
2023/07/29 06:03:37;;;;;;;0.10;0.10;;;;;;;16.29;100.00;100592.78;5055467;28;20381;-49
2023/07/29 06:06:02;;;;;;;0.10;0.10;;;;;;;16.31;100.00;100588.47;5055635;28;20057;-49
2023/07/29 06:08:29;;;;;;;0.00;0.00;;;;;;;16.40;100.00;100588.47;5054736;28;20469;-46
2023/07/29 06:10:54;;;;;;;0.10;0.10;;;;;;;16.49;100.00;100591.94;5055729;28;20025;-48
2023/07/29 06:13:19;;;;;;;0.10;0.10;;;;;;;16.60;100.00;100590.22;5055677;28;20048;-47
2023/07/29 06:15:45;;;;;;;0.10;0.10;;;;;;;16.79;100.00;100589.34;5054347;28;20032;-50
2023/07/29 06:18:10;;;;;;;0.10;0.10;;;;;;;16.93;100.00;100594.59;5055342;28;20025;-50
2023/07/29 06:20:35;;;;;;;0.10;0.10;;;;;;;17.02;100.00;100598.94;5055107;28;20021;-49
2023/07/29 06:23:02;;;;;;;0.10;0.10;;;;;;;17.20;100.00;100594.56;5054929;28;20021;-50
2023/07/29 06:25:27;;;;;;;0.10;0.10;;;;;;;17.32;100.00;100586.72;5055254;28;20048;-49
2023/07/29 06:27:52;;;;;;;0.00;0.00;;;;;;;17.30;100.00;100598.91;5055388;28;20385;-48
2023/07/29 06:30:18;;;;;;;0.00;0.00;;;;;;;17.20;100.00;100581.56;5054694;28;20025;-45
2023/07/29 06:32:43;;;;;;;0.05;0.05;;;;;;;17.13;100.00;100595.44;5055006;28;20104;-50
2023/07/29 06:35:08;;;;;;;0.00;0.00;;;;;;;17.05;100.00;100593.69;5055137;28;20447;-50
2023/07/29 06:37:34;;;;;;;0.10;0.10;;;;;;;16.94;100.00;100598.06;5054248;28;20539;-49
2023/07/29 06:39:59;;;;;;;0.10;0.10;;;;;;;16.99;100.00;100593.72;5055333;28;20473;-48
2023/07/29 06:42:24;;;;;;;0.10;0.10;;;;;;;17.01;100.00;100597.19;5053911;28;20084;-47
2023/07/29 06:44:50;;;;;;;0.10;0.10;;;;;;;17.04;100.00;100597.19;5055221;28;20100;-45
2023/07/29 06:47:15;;;;;;;0.00;0.00;;;;;;;17.13;100.00;100587.63;5055034;28;20036;-50
2023/07/29 06:49:40;;;;;;;0.00;0.00;;;;;;;17.25;100.00;100585.00;5053908;28;20037;-47
2023/07/29 06:52:06;;;;;;;0.10;0.10;;;;;;;17.25;100.00;100590.22;5055117;28;20029;-50
2023/07/29 06:54:31;;;;;;;0.00;0.00;;;;;;;17.30;100.00;100588.47;5054736;28;20029;-48
2023/07/29 06:56:56;;;;;;;0.00;0.00;;;;;;;17.39;100.00;100596.25;5054112;28;20546;-46
2023/07/29 06:59:22;;;;;;;0.00;0.00;;;;;;;17.46;100.00;100597.09;5054809;28;20033;-47
2023/07/29 07:01:47;;;;;;;0.10;0.10;;;;;;;17.56;100.00;100605.78;5054796;28;20053;-48
2023/07/29 07:04:12;;;;;;;0.10;0.10;;;;;;;17.61;100.00;100604.88;5053917;28;20032;-49
2023/07/29 07:06:38;;;;;;;0.10;0.10;;;;;;;17.76;100.00;100611.75;5054602;28;20028;-47
2023/07/29 07:09:03;;;;;;;0.00;0.00;;;;;;;17.83;100.00;100617.84;5054731;28;20025;-49
2023/07/29 07:11:28;;;;;;;0.10;0.10;;;;;;;18.08;100.00;100618.59;5053328;28;20094;-50
2023/07/29 07:13:54;;;;;;;0.00;0.00;;;;;;;18.55;100.00;100614.00;5054248;28;20108;-51
2023/07/29 07:16:19;;;;;;;0.10;0.10;;;;;;;18.53;100.00;100617.50;5054543;28;20052;-50
2023/07/29 07:18:44;;;;;;;0.00;0.00;;;;;;;18.52;100.00;100613.13;5053319;28;20028;-51
2023/07/29 07:21:10;;;;;;;0.00;0.00;;;;;;;18.52;100.00;100615.75;5054460;28;20037;-50
2023/07/29 07:23:36;;;;;;;0.10;0.10;;;;;;;18.52;100.00;100613.13;5053981;28;20056;-47
2023/07/29 07:26:01;;;;;;;0.00;0.00;;;;;;;18.42;100.00;100609.72;5053603;28;20029;-48
2023/07/29 07:28:27;;;;;;;0.10;0.10;;;;;;;18.51;100.00;100616.63;5054067;28;20037;-46
2023/07/29 07:30:52;;;;;;;0.00;0.00;;;;;;;18.71;100.00;100609.50;5054181;28;20048;-44
2023/07/29 07:33:17;;;;;;;0.00;0.00;;;;;;;18.75;100.00;100624.25;5053369;28;20469;-50
2023/07/29 07:35:43;;;;;;;0.00;0.00;;;;;;;18.75;100.00;100629.47;5053709;28;20029;-51
2023/07/29 07:38:09;;;;;;;0.00;0.00;;;;;;;18.72;100.00;100639.97;5054098;28;20066;-49
2023/07/29 07:40:35;;;;;;;0.00;0.00;;;;;;;18.76;100.00;100641.66;5053151;28;20025;-47
2023/07/29 07:43:01;;;;;;;0.10;0.10;;;;;;;18.68;100.00;100642.59;5053905;28;20037;-48
2023/07/29 07:45:26;;;;;;;0.00;0.00;;;;;;;18.63;100.00;100637.44;5053734;28;20040;-49
2023/07/29 07:47:56;;;;;;;0.10;0.10;;;;;;;18.69;100.00;100641.72;5052984;28;20459;-45
2023/07/29 07:50:21;;;;;;;0.00;0.00;;;;;;;18.76;100.00;100641.66;5053950;28;20037;-50
2023/07/29 07:52:47;;;;;;;0.10;0.10;;;;;;;18.72;100.00;100645.19;5052689;28;20032;-48
2023/07/29 07:55:12;;;;;;;0.00;0.00;;;;;;;18.92;100.00;100647.66;5053590;28;20476;-44
2023/07/29 07:57:38;;;;;;;0.00;0.00;;;;;;;18.91;100.00;100648.56;5053668;28;20024;-48
2023/07/29 08:00:04;;;;;;;0.00;0.00;;;;;;;18.92;100.00;100652.03;5052909;28;20515;-49
2023/07/29 08:02:30;;;;;;;0.00;0.00;;;;;;;18.99;100.00;100647.59;5053367;28;20067;-48
2023/07/29 08:04:55;;;;;;;0.00;0.00;;;;;;;19.13;100.00;100634.44;5053838;28;20431;-46
2023/07/29 08:07:20;;;;;;;0.00;0.00;;;;;;;19.14;100.00;100642.25;5052908;28;20130;-45
2023/07/29 08:09:45;;;;;;;0.00;0.00;;;;;;;19.26;100.00;100633.41;5053195;28;20092;-45
2023/07/29 08:12:11;;;;;;;0.00;0.00;;;;;;;19.30;100.00;100637.75;5053458;28;20013;-48
2023/07/29 08:14:36;;;;;;;0.00;0.00;;;;;;;19.31;100.00;100636.84;5052303;28;20047;-46
2023/07/29 08:17:02;;;;;;;0.05;0.05;;;;;;;19.45;100.00;100651.56;5053544;28;20032;-47
2023/07/29 08:19:28;;;;;;;0.00;0.00;;;;;;;19.29;100.00;100651.72;5053533;28;20107;-45
2023/07/29 08:21:53;;;;;;;0.00;0.00;;;;;;;19.25;100.00;100648.25;5052707;28;20441;-45
2023/07/29 08:24:18;;;;;;;0.05;0.05;;;;;;;19.23;100.00;100652.59;5052503;28;20435;-46
2023/07/29 08:26:44;;;;;;;0.00;0.00;;;;;;;19.07;100.00;100654.50;5053128;28;20017;-47
2023/07/29 08:29:09;;;;;;;0.00;0.00;;;;;;;18.99;100.00;100648.50;5052505;28;20036;-47
2023/07/29 08:31:34;;;;;;;0.00;0.00;;;;;;;18.94;100.00;100644.16;5052940;28;20521;-44
2023/07/29 08:34:00;;;;;;;0.00;0.00;;;;;;;19.23;100.00;100636.94;5053105;28;20448;-45
2023/07/29 08:36:26;;;;;;;0.00;0.00;;;;;;;19.28;100.00;100639.50;5051982;28;20564;-47
2023/07/29 08:38:51;;;;;;;0.00;0.00;;;;;;;19.43;100.00;100638.47;5053151;28;20021;-45
2023/07/29 08:41:24;;;;;;;0.10;0.10;;;;;;;19.64;100.00;100631.28;5053089;28;20070;-46
2023/07/29 08:44:11;;;;;;;0.10;0.10;;;;;;;19.65;99.39;100638.25;5052068;28;20091;-49
2023/07/29 08:46:37;;;;;;;;;;;;;;;19.81;100.00;100633.72;5053304;28;20079;-50
2023/07/29 08:49:02;;;;;;;0.10;0.10;;;;;;;19.91;98.79;100635.38;5052237;28;19913;-45
2023/07/29 08:51:29;;;;;;;0.00;0.00;;;;;;;20.02;97.04;100637.84;5052402;28;20071;-49
2023/07/29 08:53:58;;;;;;;0.10;0.10;;;;;;;20.05;93.96;100633.44;5052989;28;20024;-46
2023/07/29 08:56:24;;;;;;;0.00;0.00;;;;;;;20.28;95.11;100641.88;5051670;28;20029;-46
2023/07/29 08:58:50;;;;;;;0.00;0.00;;;;;;;20.21;94.08;100636.72;5052744;28;20025;-44
2023/07/29 09:01:15;;;;;;;0.00;0.00;;;;;;;20.28;93.24;100636.63;5052969;28;20025;-47
2023/07/29 09:03:41;;;;;;;0.05;0.00;;;;;;;20.46;94.65;100632.88;5051781;28;20098;-46
2023/07/29 09:06:07;;;;;;;0.00;0.00;;;;;;;20.53;90.10;100632.75;5052545;28;20040;-49
2023/07/29 09:08:33;;;;;;;0.00;0.00;;;;;;;20.64;89.59;100629.97;5052407;28;20035;-49
2023/07/29 09:10:59;;;;;;;0.00;0.00;;;;;;;20.94;89.98;100638.28;5051784;28;20020;-51
2023/07/29 09:13:25;;;;;;;0.00;0.00;;;;;;;20.91;88.81;100640.06;5052218;28;20078;-50
2023/07/29 09:15:55;;;;;;;0.00;0.00;;;;;;;20.81;87.62;100640.22;5052625;28;20025;-46
2023/07/29 09:18:20;;;;;;;0.00;0.00;;;;;;;20.85;87.67;100633.16;5051985;28;20021;-50
2023/07/29 09:20:47;;;;;;;0.00;0.00;;;;;;;20.77;87.13;100632.44;5052440;28;20082;-49
2023/07/29 09:23:13;;;;;;;0.00;0.00;;;;;;;20.66;88.38;100630.81;5052544;28;20025;-51
2023/07/29 09:25:39;;;;;;;0.00;0.00;;;;;;;20.68;89.73;100622.94;5051417;28;20063;-51
2023/07/29 09:28:11;;;;;;;0.00;0.00;;;;;;;20.75;91.11;100623.72;5052441;28;20024;-46
2023/07/29 09:30:41;;;;;;;0.00;0.00;;;;;;;20.79;90.91;100621.03;5052348;28;20040;-46
2023/07/29 09:33:06;;;;;;;0.00;0.00;;;;;;;20.89;90.09;100620.00;5051588;28;20610;-48
2023/07/29 09:35:34;;;;;;;0.00;0.00;;;;;;;21.02;88.82;100622.44;5053548;28;20104;-45
2023/07/29 09:38:00;;;;;;;0.00;0.00;;;;;;;21.27;91.53;100627.22;5056297;28;20025;-45
2023/07/29 09:40:26;;;;;;;0.00;0.00;;;;;;;21.52;88.18;100624.97;5055234;28;20025;-44
2023/07/29 09:42:55;;;;;;;0.03;0.03;;;;;;;21.75;85.69;100623.72;5056056;28;20056;-48
2023/07/29 09:45:22;;;;;;;0.00;0.00;;;;;;;21.74;83.85;100621.97;5055266;28;20451;-49
2023/07/29 09:47:48;;;;;;;0.00;0.00;;;;;;;21.54;83.03;100621.47;5056305;28;20048;-50
2023/07/29 09:50:14;;;;;;;0.00;0.00;;;;;;;21.34;84.01;100634.06;5056150;28;20504;-46
2023/07/29 09:52:39;;;;;;;0.00;0.00;;;;;;;21.41;83.33;100630.44;5055012;28;20036;-46
2023/07/29 09:55:06;;;;;;;0.00;0.00;;;;;;;21.38;82.31;100639.22;5055893;28;20025;-46
2023/07/29 09:57:32;;;;;;;0.00;0.00;;;;;;;21.37;83.57;100631.41;5055650;28;20453;-47
2023/07/29 09:59:57;;;;;;;0.00;0.00;;;;;;;21.27;83.76;100637.72;5055281;28;20271;-48
2023/07/29 10:02:25;;;;;;;0.00;0.00;;;;;;;21.32;86.55;100630.63;5055677;28;20025;-45
2023/07/29 10:04:52;;;;;;;0.00;0.00;;;;;;;21.42;85.27;100633.91;5055893;28;20033;-46
2023/07/29 10:07:18;;;;;;;0.00;0.00;;;;;;;21.45;83.35;100639.97;5055092;28;20067;-48
2023/07/29 10:09:45;;;;;;;0.00;0.00;;;;;;;21.48;86.54;100636.44;5055554;28;20021;-47
2023/07/29 10:12:11;;;;;;;0.00;0.00;;;;;;;21.56;86.95;100639.78;5055909;28;20024;-45
2023/07/29 10:14:38;;;;;;;0.00;0.00;;;;;;;21.76;85.63;100630.69;5054718;28;20082;-45
2023/07/29 10:17:05;;;;;;;0.00;0.00;;;;;;;22.14;85.96;100627.25;5055742;28;20029;-47
2023/07/29 10:19:31;;;;;;;0.00;0.00;;;;;;;22.86;78.58;100634.34;5055448;28;20029;-49
2023/07/29 10:22:01;;;;;;;0.00;0.00;;;;;;;23.07;77.05;100626.81;5054867;28;20158;-50
2023/07/29 10:24:30;;;;;;;0.00;0.00;;;;;;;22.96;77.82;100627.97;5055202;28;20044;-47
2023/07/29 10:27:00;;;;;;;0.00;0.00;;;;;;;22.71;76.28;100626.84;5055610;28;20028;-48
2023/07/29 10:29:34;;;;;;;0.00;0.00;;;;;;;22.96;77.62;100624.50;5054271;28;20385;-46
2023/07/29 10:32:03;;;;;;;0.00;0.00;;;;;;;23.15;74.64;100623.13;5055567;28;20100;-46
2023/07/29 10:34:29;;;;;;;0.00;0.00;;;;;;;23.23;72.52;100622.06;5054001;28;20029;-49
2023/07/29 10:36:55;;;;;;;0.00;0.00;;;;;;;23.42;72.32;100614.53;5055386;28;20059;-45
2023/07/29 10:39:21;;;;;;;0.00;0.00;;;;;;;23.65;71.98;100611.25;5055516;28;20037;-49
2023/07/29 10:42:05;;;;;;;0.00;0.00;;;;;;;24.21;72.01;100615.78;5054164;28;20552;-46
2023/07/29 10:44:39;;;;;;;0.00;0.00;;;;;;;24.86;66.45;100611.09;5054859;28;20524;-50
2023/07/29 10:47:12;;;;;;;0.00;0.00;;;;;;;25.01;64.87;100612.34;5053989;28;20584;-48
2023/07/29 10:49:40;;;;;;;0.00;0.00;;;;;;;24.78;62.41;100605.22;5054102;28;20061;-51
2023/07/29 10:52:06;;;;;;;0.00;0.00;;;;;;;24.11;64.31;100604.66;5055115;28;20056;-46
2023/07/29 10:54:42;;;;;;;0.00;0.00;;;;;;;23.84;68.59;100606.31;5054656;28;20374;-50
2023/07/29 10:57:08;;;;;;;0.00;0.00;;;;;;;23.33;70.41;100600.75;5054229;28;20067;-51
2023/07/29 10:59:36;;;;;;;0.00;0.00;;;;;;;23.02;72.37;100601.53;5054566;28;20496;-47
2023/07/29 11:02:02;;;;;;;0.00;0.00;;;;;;;22.63;75.69;100608.66;5054791;28;20590;-48
2023/07/29 11:04:30;;;;;;;0.00;0.00;;;;;;;22.40;75.41;100603.94;5053900;28;20025;-46
2023/07/29 11:07:04;;;;;;;0.00;0.00;;;;;;;22.20;75.24;100610.50;5054893;28;20048;-45
2023/07/29 11:09:43;;;;;;;0.00;0.00;;;;;;;22.14;77.79;100611.50;5054411;28;20061;-47
2023/07/29 11:12:42;;;;;;;0.00;0.00;;;;;;;22.03;79.08;100610.88;5054672;28;20151;-48
2023/07/29 11:15:10;;;;;;;0.00;0.00;;;;;;;21.71;78.50;100605.38;5054762;28;20017;-46
2023/07/29 11:17:36;;;;;;;0.00;0.00;;;;;;;21.60;79.04;100598.66;5053519;28;20037;-47